sensor_id;sensor_type;location;lat;lon;timestamp;temperature;humidity
11242;DHT22;5678;52.370;9.006;2022-12-20T00:01:31;7.10;99.90
11242;DHT22;5678;52.370;9.006;2022-12-20T00:04:02;7.10;99.90
11242;DHT22;5678;52.370;9.006;2022-12-20T00:06:33;7.20;99.90
11242;DHT22;5678;52.370;9.006;2022-12-20T00:09:02;7.20;99.90
11242;DHT22;5678;52.370;9.006;2022-12-20T00:11:30;7.20;99.90
11242;DHT22;5678;52.370;9.006;2022-12-20T00:14:00;7.10;99.90
11242;DHT22;5678;52.370;9.006;2022-12-20T00:16:28;7.10;99.90
11242;DHT22;5678;52.370;9.006;2022-12-20T00:18:57;7.10;99.90
11242;DHT22;5678;52.370;9.006;2022-12-20T00:21:26;7.00;99.90
11242;DHT22;5678;52.370;9.006;2022-12-20T00:23:54;7.00;99.90
11242;DHT22;5678;52.370;9.006;2022-12-20T00:26:24;7.10;99.90
11242;DHT22;5678;52.370;9.006;2022-12-20T00:28:53;7.10;99.90
11242;DHT22;5678;52.370;9.006;2022-12-20T00:31:23;7.20;99.90
11242;DHT22;5678;52.370;9.006;2022-12-20T00:33:53;7.20;99.90
11242;DHT22;5678;52.370;9.006;2022-12-20T00:36:23;7.30;99.90
11242;DHT22;5678;52.370;9.006;2022-12-20T00:38:52;7.40;99.90
11242;DHT22;5678;52.370;9.006;2022-12-20T00:41:21;7.30;99.90
11242;DHT22;5678;52.370;9.006;2022-12-20T00:43:49;7.30;99.90
11242;DHT22;5678;52.370;9.006;2022-12-20T00:46:19;7.50;99.90
11242;DHT22;5678;52.370;9.006;2022-12-20T00:48:50;7.50;99.90
11242;DHT22;5678;52.370;9.006;2022-12-20T00:51:20;7.50;99.90
11242;DHT22;5678;52.370;9.006;2022-12-20T00:53:48;7.60;99.90
11242;DHT22;5678;52.370;9.006;2022-12-20T00:56:16;7.60;99.90
11242;DHT22;5678;52.370;9.006;2022-12-20T00:58:44;7.60;99.90
11242;DHT22;5678;52.370;9.006;2022-12-20T01:01:18;7.60;99.90
11242;DHT22;5678;52.370;9.006;2022-12-20T01:03:47;7.60;99.90
11242;DHT22;5678;52.370;9.006;2022-12-20T01:06:17;7.60;99.90
11242;DHT22;5678;52.370;9.006;2022-12-20T01:08:46;7.60;99.90
11242;DHT22;5678;52.370;9.006;2022-12-20T01:11:16;7.60;99.90
11242;DHT22;5678;52.370;9.006;2022-12-20T01:13:48;7.70;99.90
11242;DHT22;5678;52.370;9.006;2022-12-20T01:16:19;7.70;99.90
11242;DHT22;5678;52.370;9.006;2022-12-20T01:18:48;7.70;99.90
11242;DHT22;5678;52.370;9.006;2022-12-20T01:21:19;7.70;99.90
11242;DHT22;5678;52.370;9.006;2022-12-20T01:23:47;8.20;99.90
11242;DHT22;5678;52.370;9.006;2022-12-20T01:26:18;7.90;99.90
11242;DHT22;5678;52.370;9.006;2022-12-20T01:28:51;8.00;99.90
11242;DHT22;5678;52.370;9.006;2022-12-20T01:31:19;8.00;99.90
11242;DHT22;5678;52.370;9.006;2022-12-20T01:33:48;8.00;99.90
11242;DHT22;5678;52.370;9.006;2022-12-20T01:36:21;8.10;99.90
11242;DHT22;5678;52.370;9.006;2022-12-20T01:38:55;8.10;99.90
11242;DHT22;5678;52.370;9.006;2022-12-20T01:41:24;8.10;99.90
11242;DHT22;5678;52.370;9.006;2022-12-20T01:43:53;8.10;99.90
11242;DHT22;5678;52.370;9.006;2022-12-20T01:46:23;8.10;99.90
11242;DHT22;5678;52.370;9.006;2022-12-20T01:48:54;8.00;99.90
11242;DHT22;5678;52.370;9.006;2022-12-20T01:51:25;8.10;99.90
11242;DHT22;5678;52.370;9.006;2022-12-20T01:53:56;8.10;99.90
11242;DHT22;5678;52.370;9.006;2022-12-20T01:56:26;8.40;99.90
11242;DHT22;5678;52.370;9.006;2022-12-20T01:58:55;8.00;99.90
11242;DHT22;5678;52.370;9.006;2022-12-20T02:01:24;7.90;99.90
11242;DHT22;5678;52.370;9.006;2022-12-20T02:03:54;8.00;99.90
11242;DHT22;5678;52.370;9.006;2022-12-20T02:06:24;7.90;99.90
11242;DHT22;5678;52.370;9.006;2022-12-20T02:08:55;8.00;99.90
11242;DHT22;5678;52.370;9.006;2022-12-20T02:11:45;8.10;99.90
11242;DHT22;5678;52.370;9.006;2022-12-20T02:14:25;8.10;99.90
11242;DHT22;5678;52.370;9.006;2022-12-20T02:17:02;8.10;99.90
11242;DHT22;5678;52.370;9.006;2022-12-20T02:20:10;8.00;99.90
11242;DHT22;5678;52.370;9.006;2022-12-20T02:22:58;8.00;99.90
11242;DHT22;5678;52.370;9.006;2022-12-20T02:25:41;8.00;99.90
11242;DHT22;5678;52.370;9.006;2022-12-20T02:28:28;8.00;99.90
11242;DHT22;5678;52.370;9.006;2022-12-20T02:31:06;8.00;99.90
11242;DHT22;5678;52.370;9.006;2022-12-20T02:33:38;8.00;99.90
11242;DHT22;5678;52.370;9.006;2022-12-20T02:36:08;8.00;99.90
11242;DHT22;5678;52.370;9.006;2022-12-20T02:38:37;8.00;99.90
11242;DHT22;5678;52.370;9.006;2022-12-20T02:41:08;8.00;99.90
11242;DHT22;5678;52.370;9.006;2022-12-20T02:43:41;8.00;99.90
11242;DHT22;5678;52.370;9.006;2022-12-20T02:46:28;8.00;99.90
11242;DHT22;5678;52.370;9.006;2022-12-20T02:49:00;8.00;99.90
11242;DHT22;5678;52.370;9.006;2022-12-20T02:51:31;8.00;99.90
11242;DHT22;5678;52.370;9.006;2022-12-20T02:54:00;8.00;99.90
11242;DHT22;5678;52.370;9.006;2022-12-20T02:56:31;8.10;99.90
11242;DHT22;5678;52.370;9.006;2022-12-20T02:59:02;8.10;99.90
11242;DHT22;5678;52.370;9.006;2022-12-20T03:01:36;8.00;99.90
11242;DHT22;5678;52.370;9.006;2022-12-20T03:04:07;8.10;99.90
11242;DHT22;5678;52.370;9.006;2022-12-20T03:06:35;8.10;99.90
11242;DHT22;5678;52.370;9.006;2022-12-20T03:09:03;8.20;99.90
11242;DHT22;5678;52.370;9.006;2022-12-20T03:11:30;8.20;99.90
11242;DHT22;5678;52.370;9.006;2022-12-20T03:13:59;8.20;99.90
11242;DHT22;5678;52.370;9.006;2022-12-20T03:16:27;8.20;99.90
11242;DHT22;5678;52.370;9.006;2022-12-20T03:18:56;8.20;99.90
11242;DHT22;5678;52.370;9.006;2022-12-20T03:21:24;8.20;99.90
11242;DHT22;5678;52.370;9.006;2022-12-20T03:23:52;8.20;99.90
11242;DHT22;5678;52.370;9.006;2022-12-20T03:26:20;8.30;99.90
11242;DHT22;5678;52.370;9.006;2022-12-20T03:28:48;8.20;99.90
11242;DHT22;5678;52.370;9.006;2022-12-20T03:31:16;8.20;99.90
11242;DHT22;5678;52.370;9.006;2022-12-20T03:33:44;8.30;99.90
11242;DHT22;5678;52.370;9.006;2022-12-20T03:36:13;8.30;99.90
11242;DHT22;5678;52.370;9.006;2022-12-20T03:38:41;8.30;99.90
11242;DHT22;5678;52.370;9.006;2022-12-20T03:41:09;8.30;99.90
11242;DHT22;5678;52.370;9.006;2022-12-20T03:43:37;8.30;99.90
11242;DHT22;5678;52.370;9.006;2022-12-20T03:46:05;8.30;99.90
11242;DHT22;5678;52.370;9.006;2022-12-20T03:48:33;8.40;99.90
11242;DHT22;5678;52.370;9.006;2022-12-20T03:51:01;8.40;99.90
11242;DHT22;5678;52.370;9.006;2022-12-20T03:53:30;8.40;99.90
11242;DHT22;5678;52.370;9.006;2022-12-20T03:55:58;8.20;99.90
11242;DHT22;5678;52.370;9.006;2022-12-20T03:58:26;8.40;99.90
11242;DHT22;5678;52.370;9.006;2022-12-20T04:00:55;8.50;99.90
11242;DHT22;5678;52.370;9.006;2022-12-20T04:03:23;8.50;99.90
11242;DHT22;5678;52.370;9.006;2022-12-20T04:05:51;8.30;99.90
11242;DHT22;5678;52.370;9.006;2022-12-20T04:08:19;8.50;99.90
11242;DHT22;5678;52.370;9.006;2022-12-20T04:10:48;8.50;99.90
11242;DHT22;5678;52.370;9.006;2022-12-20T04:13:33;8.50;99.90
11242;DHT22;5678;52.370;9.006;2022-12-20T04:16:01;8.60;99.90
11242;DHT22;5678;52.370;9.006;2022-12-20T04:18:29;8.60;99.90
11242;DHT22;5678;52.370;9.006;2022-12-20T04:20:59;8.60;99.90
11242;DHT22;5678;52.370;9.006;2022-12-20T04:23:26;8.60;99.90
11242;DHT22;5678;52.370;9.006;2022-12-20T04:25:56;8.60;99.90
11242;DHT22;5678;52.370;9.006;2022-12-20T04:28:24;8.60;99.90
11242;DHT22;5678;52.370;9.006;2022-12-20T04:30:51;8.60;99.90
11242;DHT22;5678;52.370;9.006;2022-12-20T04:33:19;8.60;99.90
11242;DHT22;5678;52.370;9.006;2022-12-20T04:35:47;8.60;99.90
11242;DHT22;5678;52.370;9.006;2022-12-20T04:38:15;8.60;99.90
11242;DHT22;5678;52.370;9.006;2022-12-20T04:40:43;8.60;99.90
11242;DHT22;5678;52.370;9.006;2022-12-20T04:43:13;8.50;99.90
11242;DHT22;5678;52.370;9.006;2022-12-20T04:45:40;8.50;99.90
11242;DHT22;5678;52.370;9.006;2022-12-20T04:48:10;8.40;99.90
11242;DHT22;5678;52.370;9.006;2022-12-20T04:50:57;8.30;99.90
11242;DHT22;5678;52.370;9.006;2022-12-20T04:53:25;8.40;99.90
11242;DHT22;5678;52.370;9.006;2022-12-20T04:56:10;8.40;99.90
11242;DHT22;5678;52.370;9.006;2022-12-20T04:58:40;8.10;99.90
11242;DHT22;5678;52.370;9.006;2022-12-20T05:01:09;8.00;99.90
11242;DHT22;5678;52.370;9.006;2022-12-20T05:03:37;8.00;99.90
11242;DHT22;5678;52.370;9.006;2022-12-20T05:06:06;7.90;99.90
11242;DHT22;5678;52.370;9.006;2022-12-20T05:08:34;7.80;99.90
11242;DHT22;5678;52.370;9.006;2022-12-20T05:11:03;7.80;99.90
11242;DHT22;5678;52.370;9.006;2022-12-20T05:13:32;7.80;99.90
11242;DHT22;5678;52.370;9.006;2022-12-20T05:16:01;7.70;99.90
11242;DHT22;5678;52.370;9.006;2022-12-20T05:18:30;7.60;99.90
11242;DHT22;5678;52.370;9.006;2022-12-20T05:20:59;7.60;99.90
11242;DHT22;5678;52.370;9.006;2022-12-20T05:23:45;7.20;99.90
11242;DHT22;5678;52.370;9.006;2022-12-20T05:26:32;7.40;99.90
11242;DHT22;5678;52.370;9.006;2022-12-20T05:29:01;7.40;99.90
11242;DHT22;5678;52.370;9.006;2022-12-20T05:31:30;7.40;99.90
11242;DHT22;5678;52.370;9.006;2022-12-20T05:33:59;7.30;99.90
11242;DHT22;5678;52.370;9.006;2022-12-20T05:36:26;7.30;99.90
11242;DHT22;5678;52.370;9.006;2022-12-20T05:38:54;7.20;99.90
11242;DHT22;5678;52.370;9.006;2022-12-20T05:41:30;7.20;99.90
11242;DHT22;5678;52.370;9.006;2022-12-20T05:43:58;7.20;99.90
11242;DHT22;5678;52.370;9.006;2022-12-20T05:46:26;7.20;99.90
11242;DHT22;5678;52.370;9.006;2022-12-20T05:48:55;7.10;99.90
11242;DHT22;5678;52.370;9.006;2022-12-20T05:51:23;7.10;99.90
11242;DHT22;5678;52.370;9.006;2022-12-20T05:53:51;7.10;99.90
11242;DHT22;5678;52.370;9.006;2022-12-20T05:56:19;7.10;99.90
11242;DHT22;5678;52.370;9.006;2022-12-20T05:58:47;7.20;99.90
11242;DHT22;5678;52.370;9.006;2022-12-20T06:01:15;7.10;99.90
11242;DHT22;5678;52.370;9.006;2022-12-20T06:03:43;8.50;99.90
11242;DHT22;5678;52.370;9.006;2022-12-20T06:06:13;7.10;99.90
11242;DHT22;5678;52.370;9.006;2022-12-20T06:08:41;7.10;99.90
11242;DHT22;5678;52.370;9.006;2022-12-20T06:11:09;6.90;99.90
11242;DHT22;5678;52.370;9.006;2022-12-20T06:13:37;7.10;99.90
11242;DHT22;5678;52.370;9.006;2022-12-20T06:16:06;7.10;99.90
11242;DHT22;5678;52.370;9.006;2022-12-20T06:18:34;7.10;99.90
11242;DHT22;5678;52.370;9.006;2022-12-20T06:21:02;6.60;99.90
11242;DHT22;5678;52.370;9.006;2022-12-20T06:23:31;7.10;99.90
11242;DHT22;5678;52.370;9.006;2022-12-20T06:26:00;7.10;99.90
11242;DHT22;5678;52.370;9.006;2022-12-20T06:28:27;6.50;99.90
11242;DHT22;5678;52.370;9.006;2022-12-20T06:30:57;8.00;99.90
11242;DHT22;5678;52.370;9.006;2022-12-20T06:33:25;6.70;99.90
11242;DHT22;5678;52.370;9.006;2022-12-20T06:35:53;7.10;99.90
11242;DHT22;5678;52.370;9.006;2022-12-20T06:38:21;7.10;99.90
11242;DHT22;5678;52.370;9.006;2022-12-20T06:40:50;6.90;99.90
11242;DHT22;5678;52.370;9.006;2022-12-20T06:43:18;7.00;99.90
11242;DHT22;5678;52.370;9.006;2022-12-20T06:45:46;6.90;99.90
11242;DHT22;5678;52.370;9.006;2022-12-20T06:48:14;6.30;99.90
11242;DHT22;5678;52.370;9.006;2022-12-20T06:50:42;6.90;99.90
11242;DHT22;5678;52.370;9.006;2022-12-20T06:53:13;6.90;99.90
11242;DHT22;5678;52.370;9.006;2022-12-20T06:55:41;6.90;99.90
11242;DHT22;5678;52.370;9.006;2022-12-20T06:58:10;7.00;99.90
11242;DHT22;5678;52.370;9.006;2022-12-20T07:00:39;7.10;99.90
11242;DHT22;5678;52.370;9.006;2022-12-20T07:03:07;7.10;99.90
11242;DHT22;5678;52.370;9.006;2022-12-20T07:05:35;7.20;99.90
11242;DHT22;5678;52.370;9.006;2022-12-20T07:08:03;6.80;99.90
11242;DHT22;5678;52.370;9.006;2022-12-20T07:10:34;7.30;99.90
11242;DHT22;5678;52.370;9.006;2022-12-20T07:13:02;7.40;99.90
11242;DHT22;5678;52.370;9.006;2022-12-20T07:15:32;9.40;99.90
11242;DHT22;5678;52.370;9.006;2022-12-20T07:18:00;7.50;99.90
11242;DHT22;5678;52.370;9.006;2022-12-20T07:20:29;7.70;99.90
11242;DHT22;5678;52.370;9.006;2022-12-20T07:22:58;7.80;99.90
11242;DHT22;5678;52.370;9.006;2022-12-20T07:25:26;7.90;99.90
11242;DHT22;5678;52.370;9.006;2022-12-20T07:27:54;8.00;99.90
11242;DHT22;5678;52.370;9.006;2022-12-20T07:30:22;8.00;99.90
11242;DHT22;5678;52.370;9.006;2022-12-20T07:32:53;8.00;99.90
11242;DHT22;5678;52.370;9.006;2022-12-20T07:35:21;8.00;99.90
11242;DHT22;5678;52.370;9.006;2022-12-20T07:37:49;9.70;99.90
11242;DHT22;5678;52.370;9.006;2022-12-20T07:40:16;8.70;99.90
11242;DHT22;5678;52.370;9.006;2022-12-20T07:42:44;8.00;99.90
11242;DHT22;5678;52.370;9.006;2022-12-20T07:45:15;7.80;99.90
11242;DHT22;5678;52.370;9.006;2022-12-20T07:47:42;8.00;99.90
11242;DHT22;5678;52.370;9.006;2022-12-20T07:50:12;8.40;99.90
11242;DHT22;5678;52.370;9.006;2022-12-20T07:52:41;7.50;99.90
11242;DHT22;5678;52.370;9.006;2022-12-20T07:55:12;9.00;99.90
11242;DHT22;5678;52.370;9.006;2022-12-20T07:57:43;7.60;99.90
11242;DHT22;5678;52.370;9.006;2022-12-20T08:00:13;8.00;99.90
11242;DHT22;5678;52.370;9.006;2022-12-20T08:02:46;8.00;99.90
11242;DHT22;5678;52.370;9.006;2022-12-20T08:05:17;8.00;99.90
11242;DHT22;5678;52.370;9.006;2022-12-20T08:07:45;7.80;99.90
11242;DHT22;5678;52.370;9.006;2022-12-20T08:10:21;8.00;99.90
11242;DHT22;5678;52.370;9.006;2022-12-20T08:12:49;8.00;99.90
11242;DHT22;5678;52.370;9.006;2022-12-20T08:15:18;7.90;99.90
11242;DHT22;5678;52.370;9.006;2022-12-20T08:17:48;7.90;99.90
11242;DHT22;5678;52.370;9.006;2022-12-20T08:20:17;7.60;99.90
11242;DHT22;5678;52.370;9.006;2022-12-20T08:22:45;7.90;99.90
11242;DHT22;5678;52.370;9.006;2022-12-20T08:25:13;7.90;99.90
11242;DHT22;5678;52.370;9.006;2022-12-20T08:27:42;7.90;99.90
11242;DHT22;5678;52.370;9.006;2022-12-20T08:30:10;7.90;99.90
11242;DHT22;5678;52.370;9.006;2022-12-20T08:32:39;7.90;99.90
11242;DHT22;5678;52.370;9.006;2022-12-20T08:35:07;8.70;99.90
11242;DHT22;5678;52.370;9.006;2022-12-20T08:37:36;7.80;99.90
11242;DHT22;5678;52.370;9.006;2022-12-20T08:40:05;7.80;99.90
11242;DHT22;5678;52.370;9.006;2022-12-20T08:42:34;7.80;99.90
11242;DHT22;5678;52.370;9.006;2022-12-20T08:45:03;7.90;99.90
11242;DHT22;5678;52.370;9.006;2022-12-20T08:47:31;7.90;99.90
11242;DHT22;5678;52.370;9.006;2022-12-20T08:49:59;7.70;99.90
11242;DHT22;5678;52.370;9.006;2022-12-20T08:52:27;7.90;99.90
11242;DHT22;5678;52.370;9.006;2022-12-20T08:54:56;7.70;99.90
11242;DHT22;5678;52.370;9.006;2022-12-20T08:57:27;7.50;99.90
11242;DHT22;5678;52.370;9.006;2022-12-20T08:59:55;8.80;99.90
11242;DHT22;5678;52.370;9.006;2022-12-20T09:02:23;7.40;99.90
11242;DHT22;5678;52.370;9.006;2022-12-20T09:04:51;8.50;99.90
11242;DHT22;5678;52.370;9.006;2022-12-20T09:07:19;8.60;99.90
11242;DHT22;5678;52.370;9.006;2022-12-20T09:09:47;7.50;99.90
11242;DHT22;5678;52.370;9.006;2022-12-20T09:12:17;8.20;99.90
11242;DHT22;5678;52.370;9.006;2022-12-20T09:14:45;8.20;99.90
11242;DHT22;5678;52.370;9.006;2022-12-20T09:17:13;8.30;99.90
11242;DHT22;5678;52.370;9.006;2022-12-20T09:19:41;9.00;99.90
11242;DHT22;5678;52.370;9.006;2022-12-20T09:22:08;8.40;99.90
11242;DHT22;5678;52.370;9.006;2022-12-20T09:24:37;8.40;99.90
11242;DHT22;5678;52.370;9.006;2022-12-20T09:27:04;8.40;99.90
11242;DHT22;5678;52.370;9.006;2022-12-20T09:29:34;8.30;99.90
11242;DHT22;5678;52.370;9.006;2022-12-20T09:32:02;10.00;99.90
11242;DHT22;5678;52.370;9.006;2022-12-20T09:34:30;8.30;99.90
11242;DHT22;5678;52.370;9.006;2022-12-20T09:36:58;8.10;99.90
11242;DHT22;5678;52.370;9.006;2022-12-20T09:39:25;8.50;99.90
11242;DHT22;5678;52.370;9.006;2022-12-20T09:41:53;8.00;99.90
11242;DHT22;5678;52.370;9.006;2022-12-20T09:44:26;9.30;99.90
11242;DHT22;5678;52.370;9.006;2022-12-20T09:47:00;8.30;99.90
11242;DHT22;5678;52.370;9.006;2022-12-20T09:49:39;8.70;99.90
11242;DHT22;5678;52.370;9.006;2022-12-20T09:52:28;8.70;99.90
11242;DHT22;5678;52.370;9.006;2022-12-20T09:55:09;8.70;99.90
11242;DHT22;5678;52.370;9.006;2022-12-20T09:57:51;8.70;99.90
11242;DHT22;5678;52.370;9.006;2022-12-20T10:00:21;8.30;99.90
11242;DHT22;5678;52.370;9.006;2022-12-20T10:02:51;10.20;99.90
11242;DHT22;5678;52.370;9.006;2022-12-20T10:05:38;8.70;99.90
11242;DHT22;5678;52.370;9.006;2022-12-20T10:08:15;8.80;99.90
11242;DHT22;5678;52.370;9.006;2022-12-20T10:10:55;8.90;99.90
11242;DHT22;5678;52.370;9.006;2022-12-20T10:13:32;8.90;99.90
11242;DHT22;5678;52.370;9.006;2022-12-20T10:16:11;8.90;99.90
11242;DHT22;5678;52.370;9.006;2022-12-20T10:18:51;10.10;99.90
11242;DHT22;5678;52.370;9.006;2022-12-20T10:21:32;9.60;99.90
11242;DHT22;5678;52.370;9.006;2022-12-20T10:24:04;10.30;99.90
11242;DHT22;5678;52.370;9.006;2022-12-20T10:26:36;9.10;99.90
11242;DHT22;5678;52.370;9.006;2022-12-20T10:29:04;9.10;99.90
11242;DHT22;5678;52.370;9.006;2022-12-20T10:31:33;10.00;99.90
11242;DHT22;5678;52.370;9.006;2022-12-20T10:34:03;9.20;99.90
11242;DHT22;5678;52.370;9.006;2022-12-20T10:36:33;8.90;99.90
11242;DHT22;5678;52.370;9.006;2022-12-20T10:39:03;8.40;99.90
11242;DHT22;5678;52.370;9.006;2022-12-20T10:41:33;8.80;99.90
11242;DHT22;5678;52.370;9.006;2022-12-20T10:44:17;9.60;99.90
11242;DHT22;5678;52.370;9.006;2022-12-20T10:46:48;9.70;99.90
11242;DHT22;5678;52.370;9.006;2022-12-20T10:49:30;10.90;99.90
11242;DHT22;5678;52.370;9.006;2022-12-20T10:52:00;9.60;99.90
11242;DHT22;5678;52.370;9.006;2022-12-20T10:54:31;9.30;99.90
11242;DHT22;5678;52.370;9.006;2022-12-20T10:57:02;11.80;99.90
11242;DHT22;5678;52.370;9.006;2022-12-20T10:59:33;12.00;99.90
11242;DHT22;5678;52.370;9.006;2022-12-20T11:02:25;10.30;99.90
11242;DHT22;5678;52.370;9.006;2022-12-20T11:05:20;10.40;99.90
11242;DHT22;5678;52.370;9.006;2022-12-20T11:07:54;10.80;99.90
11242;DHT22;5678;52.370;9.006;2022-12-20T11:10:43;10.40;99.90
11242;DHT22;5678;52.370;9.006;2022-12-20T11:13:21;10.60;99.90
11242;DHT22;5678;52.370;9.006;2022-12-20T11:15:50;10.30;99.90
11242;DHT22;5678;52.370;9.006;2022-12-20T11:18:28;11.70;99.90
11242;DHT22;5678;52.370;9.006;2022-12-20T11:21:07;10.80;99.90
11242;DHT22;5678;52.370;9.006;2022-12-20T11:23:48;10.90;99.90
11242;DHT22;5678;52.370;9.006;2022-12-20T11:26:29;10.90;99.90
11242;DHT22;5678;52.370;9.006;2022-12-20T11:29:17;10.80;99.90
11242;DHT22;5678;52.370;9.006;2022-12-20T11:31:55;10.80;99.90
11242;DHT22;5678;52.370;9.006;2022-12-20T11:34:35;11.10;99.90
11242;DHT22;5678;52.370;9.006;2022-12-20T11:37:17;11.30;99.90
11242;DHT22;5678;52.370;9.006;2022-12-20T11:39:58;11.00;99.90
11242;DHT22;5678;52.370;9.006;2022-12-20T11:42:41;11.00;99.90
11242;DHT22;5678;52.370;9.006;2022-12-20T11:45:18;11.30;99.90
11242;DHT22;5678;52.370;9.006;2022-12-20T11:48:02;11.00;99.90
11242;DHT22;5678;52.370;9.006;2022-12-20T11:50:44;11.00;99.90
11242;DHT22;5678;52.370;9.006;2022-12-20T11:53:21;11.30;99.90
11242;DHT22;5678;52.370;9.006;2022-12-20T11:55:52;12.10;99.90
11242;DHT22;5678;52.370;9.006;2022-12-20T11:58:25;12.40;99.90
11242;DHT22;5678;52.370;9.006;2022-12-20T12:00:56;10.90;99.90
11242;DHT22;5678;52.370;9.006;2022-12-20T12:03:29;11.50;99.90
11242;DHT22;5678;52.370;9.006;2022-12-20T12:06:02;10.80;99.90
11242;DHT22;5678;52.370;9.006;2022-12-20T12:08:39;10.70;99.90
11242;DHT22;5678;52.370;9.006;2022-12-20T12:11:13;10.80;99.90
11242;DHT22;5678;52.370;9.006;2022-12-20T12:14:05;10.70;99.90
11242;DHT22;5678;52.370;9.006;2022-12-20T12:16:36;12.40;99.90
11242;DHT22;5678;52.370;9.006;2022-12-20T12:19:08;10.70;99.90
11242;DHT22;5678;52.370;9.006;2022-12-20T12:21:39;10.70;99.90
11242;DHT22;5678;52.370;9.006;2022-12-20T12:24:23;10.60;99.90
11242;DHT22;5678;52.370;9.006;2022-12-20T12:26:52;11.00;99.90
11242;DHT22;5678;52.370;9.006;2022-12-20T12:29:21;10.70;99.90
11242;DHT22;5678;52.370;9.006;2022-12-20T12:31:52;12.10;99.90
11242;DHT22;5678;52.370;9.006;2022-12-20T12:34:32;10.70;99.90
11242;DHT22;5678;52.370;9.006;2022-12-20T12:37:36;11.20;99.90
11242;DHT22;5678;52.370;9.006;2022-12-20T12:40:36;11.60;99.90
11242;DHT22;5678;52.370;9.006;2022-12-20T12:43:48;10.70;99.90
11242;DHT22;5678;52.370;9.006;2022-12-20T12:46:21;10.70;99.90
11242;DHT22;5678;52.370;9.006;2022-12-20T12:48:55;10.70;99.90
11242;DHT22;5678;52.370;9.006;2022-12-20T12:51:28;10.80;99.90
11242;DHT22;5678;52.370;9.006;2022-12-20T12:54:15;12.30;99.90
11242;DHT22;5678;52.370;9.006;2022-12-20T12:56:46;10.30;99.90
11242;DHT22;5678;52.370;9.006;2022-12-20T13:02:32;11.80;99.90
11242;DHT22;5678;52.370;9.006;2022-12-20T13:05:34;10.60;99.90
11242;DHT22;5678;52.370;9.006;2022-12-20T13:08:03;10.50;99.90
11242;DHT22;5678;52.370;9.006;2022-12-20T13:11:00;10.40;99.90
11242;DHT22;5678;52.370;9.006;2022-12-20T13:13:29;10.80;99.90
11242;DHT22;5678;52.370;9.006;2022-12-20T13:16:12;10.20;99.90
11242;DHT22;5678;52.370;9.006;2022-12-20T13:19:15;10.30;99.90
11242;DHT22;5678;52.370;9.006;2022-12-20T13:21:44;10.20;99.90
11242;DHT22;5678;52.370;9.006;2022-12-20T13:27:34;10.10;99.90
11242;DHT22;5678;52.370;9.006;2022-12-20T13:33:21;10.70;99.90
11242;DHT22;5678;52.370;9.006;2022-12-20T13:36:02;10.10;99.90
11242;DHT22;5678;52.370;9.006;2022-12-20T13:38:53;10.10;99.90
11242;DHT22;5678;52.370;9.006;2022-12-20T13:41:32;10.10;99.90
11242;DHT22;5678;52.370;9.006;2022-12-20T13:44:35;10.00;99.90
11242;DHT22;5678;52.370;9.006;2022-12-20T13:47:27;10.00;99.90
11242;DHT22;5678;52.370;9.006;2022-12-20T13:50:00;10.30;99.90
11242;DHT22;5678;52.370;9.006;2022-12-20T13:52:31;9.90;99.90
11242;DHT22;5678;52.370;9.006;2022-12-20T13:55:07;9.70;99.90
11242;DHT22;5678;52.370;9.006;2022-12-20T13:57:43;9.70;99.90
11242;DHT22;5678;52.370;9.006;2022-12-20T14:00:15;10.50;99.90
11242;DHT22;5678;52.370;9.006;2022-12-20T14:02:44;9.70;99.90
11242;DHT22;5678;52.370;9.006;2022-12-20T14:05:16;9.70;99.90
11242;DHT22;5678;52.370;9.006;2022-12-20T14:07:48;9.70;99.90
11242;DHT22;5678;52.370;9.006;2022-12-20T14:10:20;11.30;99.90
11242;DHT22;5678;52.370;9.006;2022-12-20T14:12:50;9.70;99.90
11242;DHT22;5678;52.370;9.006;2022-12-20T14:15:24;8.90;99.90
11242;DHT22;5678;52.370;9.006;2022-12-20T14:17:52;9.60;99.90
11242;DHT22;5678;52.370;9.006;2022-12-20T14:20:25;10.10;99.90
11242;DHT22;5678;52.370;9.006;2022-12-20T14:22:57;9.90;99.90
11242;DHT22;5678;52.370;9.006;2022-12-20T14:25:36;10.90;99.90
11242;DHT22;5678;52.370;9.006;2022-12-20T14:28:13;9.60;99.90
11242;DHT22;5678;52.370;9.006;2022-12-20T14:30:52;9.60;99.90
11242;DHT22;5678;52.370;9.006;2022-12-20T14:33:26;9.60;99.90
11242;DHT22;5678;52.370;9.006;2022-12-20T14:35:57;10.90;99.90
11242;DHT22;5678;52.370;9.006;2022-12-20T14:38:33;10.60;99.90
11242;DHT22;5678;52.370;9.006;2022-12-20T14:41:01;9.50;99.90
11242;DHT22;5678;52.370;9.006;2022-12-20T14:43:33;10.00;99.90
11242;DHT22;5678;52.370;9.006;2022-12-20T14:46:18;11.20;99.90
11242;DHT22;5678;52.370;9.006;2022-12-20T14:48:48;9.40;99.90
11242;DHT22;5678;52.370;9.006;2022-12-20T14:51:20;10.60;99.90
11242;DHT22;5678;52.370;9.006;2022-12-20T14:53:49;9.30;99.90
11242;DHT22;5678;52.370;9.006;2022-12-20T14:56:20;9.30;99.90
11242;DHT22;5678;52.370;9.006;2022-12-20T14:59:05;9.20;99.90
11242;DHT22;5678;52.370;9.006;2022-12-20T15:01:37;9.20;99.90
11242;DHT22;5678;52.370;9.006;2022-12-20T15:04:22;9.10;99.90
11242;DHT22;5678;52.370;9.006;2022-12-20T15:06:51;9.10;99.90
11242;DHT22;5678;52.370;9.006;2022-12-20T15:09:20;9.10;99.90
11242;DHT22;5678;52.370;9.006;2022-12-20T15:11:48;9.70;99.90
11242;DHT22;5678;52.370;9.006;2022-12-20T15:14:28;9.70;99.90
11242;DHT22;5678;52.370;9.006;2022-12-20T15:16:59;8.90;99.90
11242;DHT22;5678;52.370;9.006;2022-12-20T15:19:27;8.90;99.90
11242;DHT22;5678;52.370;9.006;2022-12-20T15:21:59;8.90;99.90
11242;DHT22;5678;52.370;9.006;2022-12-20T15:24:27;8.80;99.90
11242;DHT22;5678;52.370;9.006;2022-12-20T15:26:55;8.80;99.90
11242;DHT22;5678;52.370;9.006;2022-12-20T15:29:25;8.90;99.90
11242;DHT22;5678;52.370;9.006;2022-12-20T15:32:06;8.80;99.90
11242;DHT22;5678;52.370;9.006;2022-12-20T15:34:39;8.80;99.90
11242;DHT22;5678;52.370;9.006;2022-12-20T15:37:14;8.80;99.90
11242;DHT22;5678;52.370;9.006;2022-12-20T15:39:44;9.90;99.90
11242;DHT22;5678;52.370;9.006;2022-12-20T15:42:16;8.70;99.90
11242;DHT22;5678;52.370;9.006;2022-12-20T15:44:44;8.70;99.90
11242;DHT22;5678;52.370;9.006;2022-12-20T15:47:13;8.70;99.90
11242;DHT22;5678;52.370;9.006;2022-12-20T15:49:42;8.70;99.90
11242;DHT22;5678;52.370;9.006;2022-12-20T15:52:18;8.70;99.90
11242;DHT22;5678;52.370;9.006;2022-12-20T15:54:48;8.70;99.90
11242;DHT22;5678;52.370;9.006;2022-12-20T15:57:16;8.70;99.90
11242;DHT22;5678;52.370;9.006;2022-12-20T15:59:44;8.70;99.90
11242;DHT22;5678;52.370;9.006;2022-12-20T16:02:28;8.70;99.90
11242;DHT22;5678;52.370;9.006;2022-12-20T16:04:57;8.70;99.90
11242;DHT22;5678;52.370;9.006;2022-12-20T16:07:26;8.80;99.90
11242;DHT22;5678;52.370;9.006;2022-12-20T16:09:54;8.80;99.90
11242;DHT22;5678;52.370;9.006;2022-12-20T16:12:24;8.80;99.90
11242;DHT22;5678;52.370;9.006;2022-12-20T16:14:53;10.50;99.90
11242;DHT22;5678;52.370;9.006;2022-12-20T16:17:21;9.00;99.90
11242;DHT22;5678;52.370;9.006;2022-12-20T16:19:49;9.00;99.90
11242;DHT22;5678;52.370;9.006;2022-12-20T16:22:19;8.90;99.90
11242;DHT22;5678;52.370;9.006;2022-12-20T16:24:49;9.10;99.90
11242;DHT22;5678;52.370;9.006;2022-12-20T16:27:18;9.10;99.90
11242;DHT22;5678;52.370;9.006;2022-12-20T16:29:47;9.00;99.90
11242;DHT22;5678;52.370;9.006;2022-12-20T16:32:16;11.00;99.90
11242;DHT22;5678;52.370;9.006;2022-12-20T16:34:45;9.20;99.90
11242;DHT22;5678;52.370;9.006;2022-12-20T16:37:13;10.90;99.90
11242;DHT22;5678;52.370;9.006;2022-12-20T16:39:41;9.20;99.90